Time;durP1;ratioP1;P1;durP2;ratioP2;P2;SDS_P1;SDS_P2;PMS_P1;PMS_P2;Temp;Humidity;BMP_temperature;BMP_pressure;BME280_temperature;BME280_humidity;BME280_pressure;Samples;Min_cycle;Max_cycle;Signal;HPM_P1;HPM_P2
2022/02/05 00:00:34;;;;;;;2.35;2.15;;;7.60;99.90;;;;;;5040606;28;20283;-51
2022/02/05 00:03:14;;;;;;;2.78;2.22;;;7.60;99.90;;;;;;5031164;28;20183;-52
2022/02/05 00:05:49;;;;;;;2.97;2.28;;;7.60;99.90;;;;;;5037650;28;20285;-51
2022/02/05 00:08:29;;;;;;;3.67;1.90;;;7.60;99.90;;;;;;5045588;28;20208;-50
2022/02/05 00:11:28;;;;;;;2.97;2.65;;;7.60;99.90;;;;;;5039726;28;20285;-51
2022/02/05 00:38:16;;;;;;;4.00;2.42;;;7.60;99.90;;;;;;5032515;28;20202;-51
2022/02/05 00:39:05;;;;;;;3.42;2.20;;;7.50;99.90;;;;;;5047617;28;20192;-51
2022/02/05 00:41:46;;;;;;;3.33;1.80;;;7.50;99.90;;;;;;5032142;28;20286;-51
2022/02/05 00:44:14;;;;;;;2.08;1.92;;;7.50;99.90;;;;;;5047509;28;20279;-52
2022/02/05 00:46:43;;;;;;;5.47;2.50;;;7.50;99.90;;;;;;5031858;28;20272;-51
2022/02/05 00:49:14;;;;;;;3.80;2.47;;;7.50;99.90;;;;;;5041055;28;20226;-51
2022/02/05 00:51:46;;;;;;;3.13;2.28;;;7.50;99.90;;;;;;5029512;28;20196;-51
2022/02/05 00:54:17;;;;;;;2.40;1.90;;;7.50;99.90;;;;;;5046140;28;20242;-51
2022/02/05 00:59:34;;;;;;;3.50;2.30;;;7.50;99.90;;;;;;5023744;28;20232;-50
2022/02/05 01:02:02;;;;;;;2.83;2.15;;;7.50;99.90;;;;;;5028007;28;20192;-51
2022/02/05 01:04:31;;;;;;;3.60;2.45;;;7.50;99.90;;;;;;5040827;28;20219;-51
2022/02/05 01:07:01;;;;;;;1.95;1.85;;;7.50;99.90;;;;;;5028100;28;20190;-51
2022/02/05 01:09:29;;;;;;;2.55;1.95;;;7.50;99.90;;;;;;5027374;28;20752;-51
2022/02/05 01:11:58;;;;;;;2.38;2.17;;;7.50;99.90;;;;;;5046945;28;20745;-51
2022/02/05 01:14:31;;;;;;;2.17;1.83;;;7.50;99.90;;;;;;5046942;28;21054;-52
2022/02/05 01:17:03;;;;;;;2.00;1.80;;;7.50;99.90;;;;;;5050533;28;20449;-51
2022/02/05 01:22:18;;;;;;;2.92;1.98;;;7.50;99.90;;;;;;5051549;28;20672;-51
2022/02/05 01:24:49;;;;;;;2.88;2.22;;;7.50;99.90;;;;;;5044684;28;20308;-52
2022/02/05 01:27:28;;;;;;;2.17;1.90;;;7.50;99.90;;;;;;5062837;28;20630;-51
2022/02/05 01:30:09;;;;;;;2.65;1.77;;;7.50;99.90;;;;;;5025292;28;20491;-52
2022/02/05 01:32:41;;;;;;;2.10;1.85;;;7.50;99.90;;;;;;5030547;28;20244;-51
2022/02/05 01:35:17;;;;;;;2.65;1.77;;;7.50;99.90;;;;;;5014664;28;20256;-51
2022/02/05 01:49:14;;;;;;;2.60;2.10;;;7.50;99.90;;;;;;5020404;28;20199;-52
2022/02/05 01:52:01;;;;;;;3.03;1.70;;;7.40;99.90;;;;;;5011734;28;20230;-51
2022/02/05 01:54:38;;;;;;;1.70;1.60;;;7.50;99.90;;;;;;5014982;28;20639;-51
2022/02/05 01:57:11;;;;;;;1.98;1.60;;;7.50;99.90;;;;;;5031341;28;20297;-52
2022/02/05 02:00:05;;;;;;;2.22;2.00;;;7.40;99.90;;;;;;5048046;28;20291;-51
2022/02/05 02:05:30;;;;;;;1.95;1.55;;;7.40;99.90;;;;;;5041593;28;20317;-51
2022/02/05 02:11:14;;;;;;;1.60;1.50;;;7.40;99.90;;;;;;5030163;28;20293;-52
2022/02/05 02:14:07;;;;;;;1.88;1.50;;;7.40;99.90;;;;;;5030568;28;20209;-52
2022/02/05 02:16:54;;;;;;;3.20;1.73;;;7.40;99.90;;;;;;5030388;28;20604;-52
2022/02/05 02:19:29;;;;;;;1.65;1.48;;;7.40;99.90;;;;;;5043920;28;20228;-51
2022/02/05 02:22:05;;;;;;;4.43;2.03;;;7.40;99.90;;;;;;5050527;28;20290;-51
2022/02/05 02:24:53;;;;;;;1.70;1.60;;;7.40;99.90;;;;;;5047649;28;20226;-50
2022/02/05 02:27:30;;;;;;;4.85;1.50;;;7.40;99.90;;;;;;5044741;28;20201;-51
2022/02/05 02:30:04;;;;;;;2.08;1.88;;;7.40;99.90;;;;;;5045194;28;20227;-52
2022/02/05 02:32:38;;;;;;;2.90;1.45;;;7.40;99.90;;;;;;5029914;28;20206;-51
2022/02/05 02:35:11;;;;;;;1.77;1.30;;;7.40;99.90;;;;;;5029529;28;20282;-51
2022/02/05 02:37:48;;;;;;;1.40;1.30;;;7.40;99.90;;;;;;5031041;28;20268;-51
2022/02/05 02:40:25;;;;;;;2.10;1.73;;;7.40;99.90;;;;;;5031102;28;20890;-51
2022/02/05 02:43:01;;;;;;;2.42;1.73;;;7.40;99.90;;;;;;5034581;28;20192;-51
2022/02/05 02:45:29;;;;;;;2.25;1.70;;;7.30;99.90;;;;;;5049004;28;20370;-51
2022/02/05 02:47:57;;;;;;;3.00;2.00;;;7.30;99.90;;;;;;5046793;28;20195;-52
2022/02/05 02:56:22;;;;;;;3.47;1.77;;;7.30;99.90;;;;;;5029531;28;20221;-52
2022/02/05 02:59:19;;;;;;;1.83;1.50;;;7.30;99.90;;;;;;4976617;28;20242;-51
2022/02/05 03:01:47;;;;;;;2.60;2.00;;;7.30;99.90;;;;;;5004143;28;20210;-52
2022/02/05 03:04:15;;;;;;;1.67;1.25;;;7.30;99.90;;;;;;5021469;28;20235;-50
2022/02/05 03:06:43;;;;;;;1.67;1.30;;;7.30;99.90;;;;;;5030007;28;20193;-51
2022/02/05 03:09:13;;;;;;;2.92;1.40;;;7.30;99.90;;;;;;5028968;28;20205;-51
2022/02/05 03:11:41;;;;;;;2.72;2.53;;;7.30;99.90;;;;;;5027609;28;20197;-51
2022/02/05 03:14:09;;;;;;;2.53;1.92;;;7.30;99.90;;;;;;5019042;28;20257;-52
2022/02/05 03:16:37;;;;;;;1.92;1.83;;;7.30;99.90;;;;;;5010071;28;20314;-50
2022/02/05 03:19:12;;;;;;;4.78;2.40;;;7.30;99.90;;;;;;5012068;28;20220;-51
2022/02/05 03:21:40;;;;;;;2.30;2.10;;;7.30;99.90;;;;;;5009733;28;20281;-51
2022/02/05 03:24:08;;;;;;;1.95;1.60;;;7.30;99.90;;;;;;5009259;28;20277;-51
2022/02/05 03:26:38;;;;;;;3.25;1.95;;;7.30;99.90;;;;;;5016168;28;20190;-52
2022/02/05 03:29:09;;;;;;;2.75;1.50;;;7.30;99.90;;;;;;5021052;28;20264;-50
2022/02/05 03:31:38;;;;;;;2.90;1.80;;;7.30;99.90;;;;;;5018167;28;20283;-51
2022/02/05 03:34:07;;;;;;;2.45;2.25;;;7.30;99.90;;;;;;5019774;28;20203;-50
2022/02/05 03:36:39;;;;;;;5.70;1.48;;;7.20;99.90;;;;;;5008915;28;20202;-51
2022/02/05 03:39:08;;;;;;;1.75;1.38;;;7.30;99.90;;;;;;5015763;28;20244;-51
2022/02/05 03:41:37;;;;;;;2.95;1.80;;;7.30;99.90;;;;;;5029021;28;20229;-51
2022/02/05 03:44:06;;;;;;;3.30;2.22;;;7.20;99.90;;;;;;5026456;28;20190;-51
2022/02/05 03:46:34;;;;;;;2.35;1.95;;;7.20;99.90;;;;;;5029458;28;20338;-50
2022/02/05 03:49:02;;;;;;;2.78;1.70;;;7.20;99.90;;;;;;5021379;28;20620;-52
2022/02/05 03:51:30;;;;;;;3.92;2.00;;;7.20;99.90;;;;;;5009056;28;20549;-50
2022/02/05 03:54:00;;;;;;;3.45;1.50;;;7.20;99.90;;;;;;5009729;28;20202;-51
2022/02/05 03:56:28;;;;;;;2.78;1.52;;;7.20;99.90;;;;;;5029093;28;20222;-51
2022/02/05 03:58:57;;;;;;;2.22;1.90;;;7.20;99.90;;;;;;5028660;28;20635;-52
2022/02/05 04:01:25;;;;;;;2.00;1.48;;;7.20;99.90;;;;;;5028440;28;20210;-50
2022/02/05 04:03:53;;;;;;;2.17;1.40;;;7.20;99.90;;;;;;5038076;28;20279;-52
2022/02/05 04:06:21;;;;;;;2.97;1.73;;;7.20;99.90;;;;;;5042559;28;20256;-52
2022/02/05 04:08:51;;;;;;;2.20;1.35;;;7.20;99.90;;;;;;5028977;28;20191;-51
2022/02/05 04:11:31;;;;;;;3.50;1.63;;;7.20;99.90;;;;;;5027773;28;20274;-51
2022/02/05 04:16:47;;;;;;;3.72;1.50;;;7.20;99.90;;;;;;5028682;28;20253;-51
2022/02/05 04:19:16;;;;;;;4.32;2.10;;;7.20;99.90;;;;;;5037333;28;20691;-51
2022/02/05 04:21:45;;;;;;;2.83;1.55;;;7.20;99.90;;;;;;5028783;28;20191;-51
2022/02/05 04:24:13;;;;;;;1.92;1.75;;;7.20;99.90;;;;;;5027879;28;20612;-51
2022/02/05 04:26:41;;;;;;;2.55;1.80;;;7.20;99.90;;;;;;5040092;28;20250;-51
2022/02/05 04:29:11;;;;;;;2.47;1.65;;;7.20;99.90;;;;;;5047753;28;20327;-51
2022/02/05 04:31:40;;;;;;;2.20;1.38;;;7.20;99.90;;;;;;5049088;28;20284;-50
2022/02/05 04:34:09;;;;;;;2.95;1.90;;;7.20;99.90;;;;;;5047033;28;20212;-51
2022/02/05 04:36:37;;;;;;;1.85;1.60;;;7.10;99.90;;;;;;5029511;28;20218;-50
2022/02/05 04:39:10;;;;;;;2.92;1.58;;;7.10;99.90;;;;;;5045306;28;20247;-51
2022/02/05 04:41:42;;;;;;;1.88;1.55;;;7.10;99.90;;;;;;5031562;28;20219;-51
2022/02/05 04:44:22;;;;;;;2.22;1.80;;;7.10;99.90;;;;;;5048520;28;20284;-51
2022/02/05 04:47:31;;;;;;;3.80;1.90;;;7.10;99.90;;;;;;5049609;28;20184;-51
2022/02/05 04:50:13;;;;;;;2.38;1.63;;;7.10;99.90;;;;;;5043152;28;20276;-51
2022/02/05 04:58:26;;;;;;;2.75;1.80;;;7.10;99.90;;;;;;5047980;28;20284;-51
2022/02/05 05:01:15;;;;;;;3.25;1.60;;;7.10;99.90;;;;;;5038386;28;20283;-51
2022/02/05 05:03:59;;;;;;;2.17;1.70;;;7.10;99.90;;;;;;5041397;28;20740;-51
2022/02/05 05:07:44;;;;;;;4.28;2.22;;;7.10;99.90;;;;;;5053997;28;20247;-51
2022/02/05 05:09:45;;;;;;;2.38;1.85;;;7.10;99.90;;;;;;5064984;28;20233;-51
2022/02/05 05:12:30;;;;;;;1.95;1.60;;;7.10;99.90;;;;;;5044624;28;20300;-51
2022/02/05 05:20:31;;;;;;;3.22;1.50;;;7.10;99.90;;;;;;5042027;28;20239;-51
2022/02/05 05:22:59;;;;;;;3.35;1.75;;;7.10;99.90;;;;;;5032777;28;20653;-51
2022/02/05 05:25:27;;;;;;;1.83;1.45;;;7.10;99.90;;;;;;5032198;28;20583;-51
2022/02/05 05:27:55;;;;;;;1.98;1.70;;;7.10;99.90;;;;;;5040186;28;20504;-51
2022/02/05 05:30:23;;;;;;;5.50;2.03;;;7.10;99.90;;;;;;5052151;28;20875;-51
2022/02/05 05:32:54;;;;;;;1.55;1.40;;;7.10;99.90;;;;;;5051769;28;20192;-50
2022/02/05 05:35:22;;;;;;;2.67;1.25;;;7.10;99.90;;;;;;5031615;28;20282;-52
2022/02/05 05:37:51;;;;;;;2.75;1.40;;;7.00;99.90;;;;;;5032565;28;20228;-51
2022/02/05 05:40:19;;;;;;;2.08;1.20;;;7.00;99.90;;;;;;5050454;28;20220;-51
2022/02/05 05:42:53;;;;;;;2.95;1.60;;;7.00;99.90;;;;;;5051289;28;20595;-51
2022/02/05 05:45:39;;;;;;;3.00;1.48;;;7.00;99.90;;;;;;5047814;28;20266;-50
2022/02/05 05:48:12;;;;;;;2.25;1.50;;;7.00;99.90;;;;;;5033824;28;20626;-51
2022/02/05 05:53:30;;;;;;;2.33;1.35;;;7.00;99.90;;;;;;5030062;28;20218;-50
2022/02/05 05:56:03;;;;;;;4.15;1.38;;;7.00;99.90;;;;;;5033394;28;20240;-51
2022/02/05 05:58:31;;;;;;;2.00;1.50;;;7.00;99.90;;;;;;5051384;28;20291;-50
2022/02/05 06:01:03;;;;;;;3.55;1.98;;;7.00;99.90;;;;;;5053390;28;20266;-51
2022/02/05 06:03:33;;;;;;;1.67;1.40;;;7.00;99.90;;;;;;5044425;28;20206;-51
2022/02/05 06:06:01;;;;;;;2.97;1.60;;;7.00;99.90;;;;;;5047356;28;20276;-51
2022/02/05 06:08:29;;;;;;;2.05;1.30;;;7.00;99.90;;;;;;5031539;28;20545;-51
2022/02/05 06:10:57;;;;;;;2.50;1.85;;;7.00;99.90;;;;;;5030364;28;20230;-51
2022/02/05 06:13:25;;;;;;;2.95;1.75;;;7.00;99.90;;;;;;5043557;28;20197;-51
2022/02/05 06:15:55;;;;;;;4.70;1.25;;;7.00;99.90;;;;;;5030100;28;20272;-51
2022/02/05 06:18:23;;;;;;;3.67;1.88;;;7.00;99.90;;;;;;5035384;28;20601;-52
2022/02/05 06:20:52;;;;;;;1.70;1.60;;;7.00;99.90;;;;;;5049783;28;20225;-50
2022/02/05 06:23:21;;;;;;;1.70;1.60;;;7.00;99.90;;;;;;5032843;28;20197;-51
2022/02/05 06:25:49;;;;;;;1.65;0.98;;;7.00;99.90;;;;;;5029425;28;20220;-50
2022/02/05 06:28:18;;;;;;;1.90;1.60;;;7.00;99.90;;;;;;5038826;28;20280;-50
2022/02/05 06:30:46;;;;;;;1.65;1.40;;;7.00;99.90;;;;;;5029870;28;20220;-51
2022/02/05 06:33:14;;;;;;;1.63;1.20;;;7.00;99.90;;;;;;5043842;28;20678;-50
2022/02/05 06:35:42;;;;;;;3.38;1.65;;;7.00;99.90;;;;;;5031742;28;20315;-50
2022/02/05 06:38:12;;;;;;;2.78;1.90;;;6.90;99.90;;;;;;5029185;28;20194;-51
2022/02/05 06:40:40;;;;;;;4.10;1.65;;;7.00;99.90;;;;;;5028970;28;20221;-51
2022/02/05 06:43:12;;;;;;;3.47;1.80;;;6.90;99.90;;;;;;5031389;28;20202;-51
2022/02/05 06:45:40;;;;;;;3.65;2.00;;;6.90;99.90;;;;;;5042675;28;20274;-51
2022/02/05 06:48:09;;;;;;;2.47;1.63;;;6.90;99.90;;;;;;5044593;28;20638;-50
2022/02/05 06:50:38;;;;;;;2.28;1.50;;;6.90;99.90;;;;;;5049019;28;20217;-51
2022/02/05 06:53:06;;;;;;;1.75;1.42;;;6.90;99.90;;;;;;5048532;28;20197;-50
2022/02/05 06:55:35;;;;;;;3.00;1.60;;;6.90;99.90;;;;;;5047955;28;20222;-52
2022/02/05 06:58:03;;;;;;;3.63;1.50;;;6.90;99.90;;;;;;5048262;28;20279;-50
2022/02/05 07:00:31;;;;;;;6.00;1.80;;;6.90;99.90;;;;;;5038187;28;20266;-51
2022/02/05 07:03:00;;;;;;;2.15;1.55;;;6.90;99.90;;;;;;5034301;28;20185;-51
2022/02/05 07:05:28;;;;;;;2.55;1.20;;;6.90;99.90;;;;;;5046648;28;20313;-51
2022/02/05 07:07:56;;;;;;;1.80;1.45;;;6.90;99.90;;;;;;5035271;28;20197;-52
2022/02/05 07:10:25;;;;;;;3.53;1.50;;;6.90;99.90;;;;;;5048978;28;20645;-51
2022/02/05 07:13:11;;;;;;;1.80;1.33;;;6.90;99.90;;;;;;5042355;28;20201;-51
2022/02/05 07:15:45;;;;;;;2.00;1.40;;;6.90;99.90;;;;;;5027575;28;20278;-51
2022/02/05 07:18:20;;;;;;;3.38;1.63;;;6.90;99.90;;;;;;5032713;28;20227;-52
2022/02/05 07:20:53;;;;;;;3.70;1.70;;;6.90;99.90;;;;;;5035727;28;20235;-50
2022/02/05 07:29:14;;;;;;;2.95;1.77;;;6.90;99.90;;;;;;5014148;28;20806;-51
2022/02/05 07:31:49;;;;;;;1.50;1.40;;;6.90;99.90;;;;;;5034377;28;20694;-51
2022/02/05 07:34:19;;;;;;;2.00;1.50;;;6.80;99.90;;;;;;5038250;28;20667;-51
2022/02/05 07:36:49;;;;;;;2.50;1.25;;;6.80;99.90;;;;;;5028708;28;20203;-51
2022/02/05 07:39:18;;;;;;;2.63;1.55;;;6.80;99.90;;;;;;5044290;28;20209;-52
2022/02/05 07:41:46;;;;;;;3.13;2.42;;;6.80;99.90;;;;;;5036693;28;20732;-51
2022/02/05 07:44:19;;;;;;;2.40;1.55;;;6.80;99.90;;;;;;5031687;28;20198;-51
2022/02/05 07:46:50;;;;;;;2.85;1.92;;;6.80;99.90;;;;;;5029458;28;20662;-51
2022/02/05 07:49:20;;;;;;;1.83;1.30;;;6.80;99.90;;;;;;5033485;28;25067;-52
2022/02/05 07:51:49;;;;;;;3.13;2.00;;;6.80;99.90;;;;;;5031932;28;20190;-51
2022/02/05 07:54:17;;;;;;;3.05;1.85;;;6.80;99.90;;;;;;5032492;28;20201;-51
2022/02/05 07:56:47;;;;;;;5.70;2.10;;;6.80;99.90;;;;;;5039447;28;20208;-52
2022/02/05 07:59:18;;;;;;;7.70;5.30;;;6.80;99.90;;;;;;5038841;28;20219;-50
2022/02/05 08:01:47;;;;;;;6.15;5.25;;;6.80;99.90;;;;;;5027986;28;20198;-50
2022/02/05 08:04:16;;;;;;;9.82;5.50;;;6.80;99.90;;;;;;5035816;28;20189;-50
2022/02/05 08:06:45;;;;;;;8.90;4.78;;;6.80;99.90;;;;;;5038663;28;20181;-50
2022/02/05 08:09:18;;;;;;;6.97;5.00;;;6.80;99.90;;;;;;5035367;28;20537;-51
2022/02/05 08:11:52;;;;;;;9.18;5.85;;;6.80;99.90;;;;;;5028466;28;20739;-51
2022/02/05 08:14:22;;;;;;;6.05;4.20;;;6.70;99.90;;;;;;5037826;28;20223;-51
2022/02/05 08:16:57;;;;;;;5.20;3.78;;;6.70;99.90;;;;;;5047797;28;20332;-51
2022/02/05 08:19:25;;;;;;;5.10;4.53;;;6.70;99.90;;;;;;5041436;28;20221;-51
2022/02/05 08:22:14;;;;;;;8.52;4.32;;;6.70;99.90;;;;;;5047669;28;20181;-51
2022/02/05 08:24:42;;;;;;;4.40;3.58;;;6.70;99.90;;;;;;5046402;28;20487;-51
2022/02/05 08:27:11;;;;;;;5.70;3.72;;;6.70;99.90;;;;;;5034842;28;20286;-51
2022/02/05 08:29:51;;;;;;;5.50;4.20;;;6.70;99.90;;;;;;5030552;28;20208;-51
2022/02/05 08:32:22;;;;;;;6.45;3.58;;;6.70;99.90;;;;;;5042977;28;20188;-52
2022/02/05 08:34:52;;;;;;;6.40;4.97;;;6.70;99.90;;;;;;5037433;28;20616;-51
2022/02/05 08:37:21;;;;;;;5.97;3.30;;;6.70;99.90;;;;;;5028244;28;20225;-52
2022/02/05 08:39:50;;;;;;;2.97;2.67;;;6.70;99.90;;;;;;5032136;28;20712;-51
2022/02/05 08:42:19;;;;;;;6.03;3.40;;;6.70;99.90;;;;;;5034431;28;20193;-51
2022/02/05 08:44:49;;;;;;;4.10;3.45;;;6.70;99.90;;;;;;5027652;28;20313;-50
2022/02/05 08:47:18;;;;;;;5.55;4.13;;;6.70;99.90;;;;;;5044411;28;20704;-50
2022/02/05 08:49:47;;;;;;;8.25;3.92;;;6.70;99.90;;;;;;5038777;28;20239;-51
2022/02/05 08:52:16;;;;;;;4.28;3.80;;;6.70;99.90;;;;;;5048436;28;20222;-50
2022/02/05 08:54:45;;;;;;;4.88;3.38;;;6.80;99.90;;;;;;5044973;28;20240;-50
2022/02/05 08:57:13;;;;;;;4.55;2.83;;;6.80;99.90;;;;;;5047524;28;20204;-51
2022/02/05 08:59:52;;;;;;;4.45;3.10;;;6.80;99.90;;;;;;5045781;28;20710;-51
2022/02/05 09:02:29;;;;;;;3.67;2.80;;;6.80;99.90;;;;;;5045751;28;20200;-50
2022/02/05 09:05:07;;;;;;;5.32;2.72;;;6.80;99.90;;;;;;5045657;28;20587;-50
2022/02/05 09:07:35;;;;;;;3.17;2.85;;;6.80;99.90;;;;;;5029922;28;20198;-51
2022/02/05 09:10:11;;;;;;;3.08;2.65;;;6.80;99.90;;;;;;5028639;28;20225;-51
2022/02/05 09:13:09;;;;;;;6.97;3.17;;;6.80;99.90;;;;;;5029536;28;20264;-51
2022/02/05 09:15:42;;;;;;;4.43;2.75;;;6.80;99.90;;;;;;5045695;28;20430;-51
2022/02/05 09:18:14;;;;;;;3.00;2.70;;;6.80;99.90;;;;;;5029298;28;20213;-51
2022/02/05 09:20:49;;;;;;;3.67;3.10;;;6.80;99.90;;;;;;5040830;28;20606;-52
2022/02/05 09:23:17;;;;;;;5.10;3.20;;;6.80;99.90;;;;;;5034699;28;20193;-51
2022/02/05 09:25:45;;;;;;;3.55;2.70;;;6.80;99.90;;;;;;5045611;28;20221;-51
2022/02/05 09:28:14;;;;;;;3.25;2.80;;;6.80;99.90;;;;;;5028230;28;20220;-51
2022/02/05 09:30:49;;;;;;;2.65;2.45;;;6.80;99.90;;;;;;5039917;28;20240;-51
2022/02/05 09:33:19;;;;;;;4.05;2.78;;;6.80;99.90;;;;;;5031720;28;20306;-50
2022/02/05 09:35:47;;;;;;;4.07;2.70;;;6.80;99.90;;;;;;5045252;28;20706;-52
2022/02/05 09:38:16;;;;;;;4.85;3.08;;;6.80;99.90;;;;;;5049058;28;20224;-50
2022/02/05 09:40:44;;;;;;;3.25;2.70;;;6.80;99.90;;;;;;5034515;28;20248;-50
2022/02/05 09:43:13;;;;;;;3.83;3.00;;;6.90;99.90;;;;;;5042512;28;20702;-50
2022/02/05 09:45:44;;;;;;;5.45;3.50;;;6.80;99.90;;;;;;5029836;28;20248;-50
2022/02/05 09:48:14;;;;;;;3.58;2.50;;;6.90;99.90;;;;;;5041496;28;20460;-50
2022/02/05 09:50:45;;;;;;;2.83;2.53;;;6.90;99.90;;;;;;5048932;28;20220;-50
2022/02/05 09:53:15;;;;;;;3.35;2.47;;;6.90;99.90;;;;;;5036598;28;20199;-51
2022/02/05 09:55:45;;;;;;;4.88;2.80;;;6.90;99.90;;;;;;5039259;28;20266;-51
2022/02/05 09:58:15;;;;;;;4.93;2.90;;;6.90;99.90;;;;;;5050010;28;20205;-51
2022/02/05 10:01:00;;;;;;;5.85;3.00;;;6.90;99.90;;;;;;5040744;28;20225;-52
2022/02/05 10:03:32;;;;;;;8.60;3.25;;;6.90;99.90;;;;;;5040225;28;20263;-51
2022/02/05 10:06:13;;;;;;;4.95;3.50;;;6.90;99.90;;;;;;5046910;28;20227;-51
2022/02/05 10:08:47;;;;;;;6.97;2.92;;;6.90;99.90;;;;;;5042355;28;20190;-50
2022/02/05 10:11:15;;;;;;;3.70;2.70;;;6.90;99.90;;;;;;5048513;28;20464;-52
2022/02/05 10:13:43;;;;;;;4.30;2.72;;;6.90;99.90;;;;;;5046883;28;20193;-52
2022/02/05 10:16:14;;;;;;;5.82;3.00;;;6.90;99.90;;;;;;5041852;28;20432;-50
2022/02/05 10:18:44;;;;;;;3.40;2.60;;;6.90;99.90;;;;;;5040757;28;20229;-51
2022/02/05 10:21:25;;;;;;;4.53;2.63;;;6.90;99.90;;;;;;5034296;28;20610;-51
2022/02/05 10:23:55;;;;;;;3.17;2.88;;;6.90;99.90;;;;;;5051559;28;20199;-51
2022/02/05 10:26:36;;;;;;;5.10;2.65;;;6.90;99.90;;;;;;5042957;28;20263;-51
2022/02/05 10:29:09;;;;;;;4.28;2.97;;;6.90;99.90;;;;;;5046840;28;20272;-51
2022/02/05 10:32:00;;;;;;;7.43;3.00;;;6.90;99.90;;;;;;5030934;28;20639;-51
2022/02/05 10:34:33;;;;;;;5.18;3.63;;;6.90;99.90;;;;;;5044566;28;20224;-51
2022/02/05 10:37:17;;;;;;;5.78;3.28;;;6.90;99.90;;;;;;5038892;28;20209;-50
2022/02/05 10:43:03;;;;;;;5.10;2.80;;;6.80;99.90;;;;;;5032056;28;20190;-51
2022/02/05 10:45:46;;;;;;;3.88;2.65;;;6.80;99.90;;;;;;5064020;28;20220;-52
2022/02/05 10:48:18;;;;;;;4.13;3.13;;;6.80;99.90;;;;;;5055608;28;20715;-51
2022/02/05 10:50:49;;;;;;;4.50;2.63;;;6.80;99.90;;;;;;5037832;28;20221;-51
2022/02/05 10:53:23;;;;;;;3.78;2.90;;;6.80;99.90;;;;;;5046334;28;20201;-51
2022/02/05 10:56:03;;;;;;;3.22;2.95;;;6.80;99.90;;;;;;5038077;28;20242;-51
2022/02/05 10:59:11;;;;;;;2.55;2.35;;;6.80;99.90;;;;;;5046554;28;20216;-51
2022/02/05 11:07:13;;;;;;;5.70;2.72;;;6.80;99.90;;;;;;5033355;28;20731;-52
2022/02/05 11:09:44;;;;;;;2.90;2.60;;;6.80;99.90;;;;;;5029254;28;20245;-51
2022/02/05 11:12:21;;;;;;;4.15;3.28;;;6.80;99.90;;;;;;5035738;28;20659;-51
2022/02/05 11:15:06;;;;;;;4.15;2.75;;;6.80;99.90;;;;;;5028399;28;20217;-50
2022/02/05 11:20:24;;;;;;;7.47;3.13;;;6.80;99.90;;;;;;5042967;28;20235;-50
2022/02/05 11:22:55;;;;;;;2.85;2.55;;;6.80;99.90;;;;;;5048314;28;20198;-51
2022/02/05 11:25:31;;;;;;;3.05;2.40;;;6.80;99.90;;;;;;5038272;28;20228;-50
2022/02/05 11:27:59;;;;;;;5.22;2.80;;;6.80;99.90;;;;;;5028608;28;20228;-51
2022/02/05 11:30:36;;;;;;;4.80;2.50;;;6.80;99.90;;;;;;5028074;28;20615;-52
2022/02/05 11:33:07;;;;;;;3.10;2.60;;;6.80;99.90;;;;;;5039590;28;20189;-51
2022/02/05 11:35:47;;;;;;;3.72;2.35;;;6.80;99.90;;;;;;5041412;28;20583;-50
2022/02/05 11:38:29;;;;;;;2.40;2.20;;;6.80;99.90;;;;;;5036204;28;20199;-51
2022/02/05 11:40:59;;;;;;;3.08;2.42;;;6.80;99.90;;;;;;5040765;28;20720;-51
2022/02/05 11:43:29;;;;;;;2.22;2.03;;;6.80;99.90;;;;;;5044863;28;20254;-51
2022/02/05 11:46:12;;;;;;;3.42;2.30;;;6.80;99.90;;;;;;5037975;28;20225;-51
2022/02/05 11:48:43;;;;;;;2.60;2.13;;;6.70;99.90;;;;;;5041997;28;20216;-51
2022/02/05 11:51:14;;;;;;;4.70;2.20;;;6.80;99.90;;;;;;5047367;28;20595;-52
2022/02/05 11:54:14;;;;;;;3.22;1.83;;;6.80;99.90;;;;;;5039681;28;20284;-51
2022/02/05 11:56:51;;;;;;;2.85;2.60;;;6.70;99.90;;;;;;5035573;28;20220;-51
2022/02/05 11:59:22;;;;;;;3.90;2.67;;;6.70;99.90;;;;;;5029433;28;20295;-51
2022/02/05 12:01:51;;;;;;;2.42;2.10;;;6.70;99.90;;;;;;5037577;28;20218;-51
2022/02/05 12:04:21;;;;;;;2.40;2.20;;;6.70;99.90;;;;;;5034055;28;20185;-52
2022/02/05 12:06:52;;;;;;;3.03;2.55;;;6.70;99.90;;;;;;5039832;28;20220;-51
2022/02/05 12:09:37;;;;;;;3.15;2.10;;;6.80;99.90;;;;;;5043141;28;20565;-51
2022/02/05 12:12:41;;;;;;;2.70;2.50;;;6.70;99.90;;;;;;5034013;28;20193;-51
2022/02/05 12:15:26;;;;;;;3.45;2.00;;;6.80;99.90;;;;;;5037033;28;20364;-52
2022/02/05 12:18:20;;;;;;;3.08;2.80;;;6.70;99.90;;;;;;5039487;28;20293;-50
2022/02/05 12:21:10;;;;;;;2.90;2.15;;;6.70;99.90;;;;;;5031211;28;20315;-51
2022/02/05 12:27:03;;;;;;;2.30;2.20;;;6.80;99.90;;;;;;5060460;22;20228;-71
2022/02/05 12:29:34;;;;;;;4.68;2.35;;;6.80;99.90;;;;;;5037037;28;20221;-72
2022/02/05 12:32:05;;;;;;;5.68;2.20;;;6.70;99.90;;;;;;5025262;28;20205;-72
2022/02/05 12:34:39;;;;;;;3.17;1.98;;;6.70;99.90;;;;;;5028912;28;20220;-72
2022/02/05 12:37:07;;;;;;;2.42;1.98;;;6.70;99.90;;;;;;5029895;28;20239;-71
2022/02/05 12:39:36;;;;;;;2.30;2.10;;;6.70;99.90;;;;;;5028661;28;20671;-72
2022/02/05 12:42:12;;;;;;;3.30;2.20;;;6.80;99.90;;;;;;5029146;28;20185;-71
2022/02/05 12:44:42;;;;;;;4.05;2.00;;;6.70;99.90;;;;;;5018610;28;20626;-71
2022/02/05 12:47:18;;;;;;;2.65;1.70;;;6.80;99.90;;;;;;5026715;28;20193;-72
2022/02/05 12:49:53;;;;;;;1.77;1.67;;;6.70;99.90;;;;;;5021849;28;20224;-71
2022/02/05 12:52:27;;;;;;;2.25;1.90;;;6.70;99.90;;;;;;5026049;28;20197;-71
2022/02/05 12:55:00;;;;;;;2.30;2.10;;;6.70;99.90;;;;;;5025638;28;20286;-72
2022/02/05 12:57:32;;;;;;;4.78;2.05;;;6.70;99.90;;;;;;5028782;28;20197;-71
2022/02/05 13:00:08;;;;;;;3.15;2.80;;;6.70;99.90;;;;;;5028776;28;20220;-72
2022/02/05 13:02:37;;;;;;;2.22;2.03;;;6.70;99.90;;;;;;5028327;28;20189;-72
2022/02/05 13:05:06;;;;;;;2.47;1.98;;;6.70;99.90;;;;;;5023367;28;20222;-71
2022/02/05 13:07:41;;;;;;;2.70;2.50;;;6.70;99.90;;;;;;5026189;28;20244;-72
2022/02/05 13:10:09;;;;;;;1.70;1.60;;;6.70;99.90;;;;;;5018946;28;20223;-71
2022/02/05 13:12:40;;;;;;;5.82;2.50;;;6.70;99.90;;;;;;5013771;28;20185;-72
2022/02/05 13:15:22;;;;;;;4.80;2.40;;;6.70;99.90;;;;;;5028767;28;20213;-72
2022/02/05 13:18:06;;;;;;;2.45;2.17;;;6.70;99.90;;;;;;5030695;28;20205;-71
2022/02/05 13:26:18;;;;;;;2.15;2.00;;;6.80;99.90;;;;;;5032214;28;20577;-71
2022/02/05 13:29:03;;;;;;;2.40;2.20;;;6.80;99.90;;;;;;5033681;28;20622;-72
2022/02/05 13:34:25;;;;;;;3.10;1.90;;;6.80;99.90;;;;;;5027199;28;20234;-71
2022/02/05 13:37:00;;;;;;;2.70;2.30;;;6.80;99.90;;;;;;5032033;28;20201;-72
2022/02/05 13:42:19;;;;;;;2.72;1.83;;;6.80;99.90;;;;;;5026942;28;20255;-71
2022/02/05 13:44:58;;;;;;;3.35;1.95;;;6.80;99.90;;;;;;5013842;28;20294;-72
2022/02/05 13:47:32;;;;;;;1.60;1.50;;;6.80;99.90;;;;;;5047891;28;20597;-71
2022/02/05 13:50:12;;;;;;;2.65;2.08;;;6.80;99.90;;;;;;5031771;28;20229;-71
2022/02/05 13:52:42;;;;;;;1.80;1.70;;;6.80;99.90;;;;;;5015173;28;20223;-72
2022/02/05 13:55:17;;;;;;;3.40;2.05;;;6.80;99.90;;;;;;5030418;28;20319;-71
2022/02/05 13:58:00;;;;;;;2.88;1.60;;;6.80;99.90;;;;;;5038042;28;20596;-71
2022/02/05 14:00:43;;;;;;;3.85;2.08;;;6.80;99.90;;;;;;5020023;28;20241;-71
2022/02/05 14:03:14;;;;;;;2.60;2.10;;;6.80;99.90;;;;;;5033210;28;20201;-71
2022/02/05 14:06:02;;;;;;;2.00;1.80;;;6.80;99.90;;;;;;5027128;28;20236;-71
2022/02/05 14:08:31;;;;;;;3.03;2.08;;;6.80;99.90;;;;;;5030886;28;20194;-72
2022/02/05 14:11:01;;;;;;;3.00;1.88;;;6.80;99.90;;;;;;5029454;28;20270;-71
2022/02/05 14:13:30;;;;;;;2.75;2.00;;;6.80;99.90;;;;;;5032287;28;20562;-72
2022/02/05 14:16:01;;;;;;;2.00;1.90;;;6.80;99.90;;;;;;5032016;28;20256;-71
2022/02/05 14:18:34;;;;;;;2.33;1.45;;;6.80;99.90;;;;;;5031021;28;20194;-72
2022/02/05 14:21:04;;;;;;;1.60;1.50;;;6.80;99.90;;;;;;5030803;28;20221;-71
2022/02/05 14:23:34;;;;;;;3.13;1.95;;;6.80;99.90;;;;;;5031641;28;20280;-71
2022/02/05 14:26:07;;;;;;;2.10;1.80;;;6.80;99.90;;;;;;5031464;28;20258;-71
2022/02/05 14:28:43;;;;;;;3.92;1.90;;;6.80;99.90;;;;;;5011023;28;20189;-72
2022/02/05 14:31:16;;;;;;;3.30;2.00;;;6.80;99.90;;;;;;5031061;28;20212;-71
2022/02/05 14:36:44;;;;;;;2.10;1.90;;;6.80;99.90;;;;;;5027427;28;20267;-71
2022/02/05 14:42:00;;;;;;;1.90;1.80;;;6.80;99.90;;;;;;5022866;28;20635;-71
2022/02/05 14:44:28;;;;;;;2.08;1.88;;;6.80;99.90;;;;;;5030049;28;20226;-71
2022/02/05 14:46:57;;;;;;;1.67;1.25;;;6.80;99.90;;;;;;5030666;28;20604;-71
2022/02/05 14:49:26;;;;;;;2.15;1.95;;;6.80;99.90;;;;;;5031296;28;20229;-72
2022/02/05 14:51:56;;;;;;;2.70;1.98;;;6.80;99.90;;;;;;5027192;28;20201;-71
2022/02/05 14:54:25;;;;;;;4.35;1.90;;;6.80;99.90;;;;;;5027689;28;20332;-72
2022/02/05 14:56:53;;;;;;;5.13;2.00;;;6.80;99.90;;;;;;5031297;28;20273;-72
2022/02/05 14:59:21;;;;;;;2.80;1.58;;;6.80;99.90;;;;;;5030733;28;20216;-71
2022/02/05 15:01:49;;;;;;;2.47;1.70;;;6.80;99.90;;;;;;5030543;28;20207;-71
2022/02/05 15:04:17;;;;;;;1.80;1.70;;;6.80;99.90;;;;;;5030381;28;20694;-71
2022/02/05 15:06:47;;;;;;;3.65;1.40;;;6.80;99.90;;;;;;5031037;28;20181;-71
2022/02/05 15:09:16;;;;;;;2.40;1.60;;;6.80;99.90;;;;;;5030515;28;20255;-71
2022/02/05 15:11:45;;;;;;;1.95;1.63;;;6.80;99.90;;;;;;5030120;28;20193;-71
2022/02/05 15:14:13;;;;;;;2.97;1.65;;;6.80;99.90;;;;;;5030975;28;20182;-71